createdAt,value
2018-11-07T00:00:51.986Z,80.20
2018-11-07T00:03:18.649Z,79.62
2018-11-07T00:05:45.062Z,79.88
2018-11-07T00:08:11.927Z,79.50
2018-11-07T00:10:38.454Z,79.45
2018-11-07T00:13:04.853Z,79.63
2018-11-07T00:15:31.293Z,79.77
2018-11-07T00:17:58.185Z,79.38
2018-11-07T00:58:22.307Z,78.10
2018-11-07T01:00:48.890Z,78.13
2018-11-07T01:03:15.452Z,78.63
2018-11-07T01:05:43.284Z,78.85
2018-11-07T01:08:09.827Z,78.25
2018-11-07T01:10:36.433Z,78.72
2018-11-07T01:13:03.123Z,79.62
2018-11-07T01:30:14.087Z,80.54
2018-11-07T01:32:40.499Z,81.07
2018-11-07T01:35:06.957Z,81.49
2018-11-07T01:37:33.898Z,81.92
2018-11-07T01:47:07.405Z,82.32
2018-11-07T01:52:35.016Z,82.57
2018-11-07T02:51:42.562Z,81.12
2018-11-07T02:55:53.099Z,81.15
2018-11-07T02:58:20.965Z,81.09
2018-11-07T03:00:47.415Z,80.62
2018-11-07T03:03:13.881Z,81.03
2018-11-07T03:05:40.609Z,81.03
2018-11-07T03:08:07.361Z,80.87
2018-11-07T03:10:33.796Z,80.26
2018-11-07T03:13:00.231Z,80.14
2018-11-07T03:15:26.647Z,79.92
2018-11-07T03:17:53.495Z,80.11
2018-11-07T03:20:19.895Z,80.76
2018-11-07T03:22:46.287Z,80.56
2018-11-07T03:25:12.994Z,80.71
2018-11-07T03:27:39.405Z,80.61
2018-11-07T03:30:05.834Z,80.30
2018-11-07T03:32:32.258Z,80.16
2018-11-07T03:34:58.945Z,80.02
2018-11-07T03:37:25.342Z,80.20
2018-11-07T03:39:51.799Z,79.93
2018-11-07T03:42:18.492Z,80.12
2018-11-07T03:55:58.128Z,80.74
2018-11-07T03:58:25.201Z,80.51
2018-11-07T04:00:51.659Z,80.28
2018-11-07T04:03:18.386Z,80.29
2018-11-07T04:05:45.080Z,80.08
2018-11-07T04:08:11.478Z,80.20
2018-11-07T04:10:37.885Z,79.67
2018-11-07T04:13:04.310Z,80.50
2018-11-07T04:15:31.829Z,80.21
2018-11-07T04:17:58.235Z,80.48
2018-11-07T04:20:24.683Z,80.78
2018-11-07T04:22:51.121Z,80.34
2018-11-07T04:25:17.694Z,80.55
2018-11-07T04:27:44.106Z,80.37
2018-11-07T04:30:10.515Z,80.50
2018-11-07T04:32:37.200Z,80.02
2018-11-07T04:35:03.600Z,80.02
2018-11-07T04:37:30.020Z,80.38
2018-11-07T04:39:56.434Z,80.21
2018-11-07T04:42:23.147Z,79.91
2018-11-07T04:44:49.594Z,79.88
2018-11-07T04:47:15.998Z,79.64
2018-11-07T04:49:42.394Z,79.65
2018-11-07T04:52:09.083Z,79.23
2018-11-07T04:54:35.496Z,79.13
2018-11-07T04:57:01.898Z,79.42
2018-11-07T04:59:28.330Z,79.55
2018-11-07T05:01:55.018Z,80.01
2018-11-07T05:04:21.424Z,79.54
2018-11-07T05:06:48.470Z,80.18
2018-11-07T05:09:15.302Z,79.96
2018-11-07T06:17:32.113Z,80.80
2018-11-07T06:20:00.390Z,81.19
2018-11-07T06:22:26.894Z,81.36
2018-11-07T06:24:53.417Z,81.19
2018-11-07T06:27:20.299Z,81.44
2018-11-07T06:29:46.819Z,80.86
2018-11-07T06:32:13.337Z,80.84
2018-11-07T06:34:40.315Z,81.15
2018-11-07T06:37:06.814Z,80.84
2018-11-07T06:40:59.127Z,81.30
2018-11-07T06:43:26.473Z,80.91
2018-11-07T06:45:52.945Z,80.79
2018-11-07T06:48:19.929Z,80.65
2018-11-07T06:50:46.491Z,80.69
2018-11-07T06:53:14.051Z,80.49
2018-11-07T06:55:41.737Z,80.46
2018-11-07T06:58:08.178Z,80.16
2018-11-07T07:00:34.745Z,80.43
2018-11-07T07:03:01.497Z,80.23
2018-11-07T07:05:31.287Z,80.66
2018-11-07T07:20:24.296Z,79.64
2018-11-07T07:54:53.053Z,78.33
2018-11-07T08:20:01.880Z,75.74
2018-11-07T08:42:43.033Z,72.37
2018-11-07T09:19:06.010Z,63.87
2018-11-07T09:21:32.488Z,63.60
2018-11-07T10:16:10.585Z,57.24
2018-11-07T11:25:14.234Z,52.82
2018-11-07T12:01:46.892Z,51.68
2018-11-07T12:14:06.285Z,51.36
2018-11-07T12:16:32.708Z,50.87
2018-11-07T12:18:59.120Z,50.62
2018-11-07T12:21:25.906Z,50.49
2018-11-07T12:23:52.305Z,49.57
2018-11-07T12:26:18.777Z,49.66
2018-11-07T12:28:46.321Z,49.61
2018-11-07T12:31:12.718Z,49.44
2018-11-07T12:33:43.037Z,49.39
2018-11-07T13:48:45.980Z,51.75
2018-11-07T13:51:12.697Z,51.23
2018-11-07T13:53:40.413Z,50.52
2018-11-07T13:56:07.309Z,50.14
2018-11-07T13:58:33.815Z,50.80
2018-11-07T14:01:00.715Z,50.99
2018-11-07T14:50:24.143Z,52.80
2018-11-07T14:52:50.632Z,53.06
2018-11-07T14:58:34.073Z,54.23
2018-11-07T15:01:02.144Z,54.20
2018-11-07T15:03:29.286Z,54.26
2018-11-07T16:57:05.901Z,63.32
2018-11-07T16:59:32.391Z,63.14
2018-11-07T17:29:44.681Z,73.08
2018-11-07T17:32:11.138Z,73.48
2018-11-07T17:34:38.224Z,74.01
2018-11-07T17:37:04.701Z,73.32
2018-11-07T17:39:31.309Z,74.07
2018-11-07T17:41:58.319Z,73.61
2018-11-07T17:57:29.507Z,73.08
2018-11-07T17:59:57.362Z,72.88
2018-11-07T18:02:27.450Z,72.81
2018-11-07T18:04:53.868Z,72.63
2018-11-07T18:07:20.842Z,72.71
2018-11-07T18:09:48.604Z,72.94
2018-11-07T18:12:15.218Z,72.64
2018-11-07T18:14:43.040Z,73.37
2018-11-07T18:47:44.639Z,74.87
2018-11-07T18:50:11.213Z,74.38
2018-11-07T18:52:38.041Z,74.13
2018-11-07T18:55:04.536Z,74.69
2018-11-07T18:57:31.720Z,74.31
2018-11-07T18:59:59.273Z,74.33
2018-11-07T19:02:25.683Z,74.41
2018-11-07T19:04:52.599Z,74.16
2018-11-07T19:07:19.597Z,73.97
2018-11-07T19:09:46.098Z,74.26
2018-11-07T19:12:15.001Z,73.77
2018-11-07T19:14:41.945Z,74.26
2018-11-07T19:17:08.466Z,73.97
2018-11-07T19:19:38.571Z,74.07
2018-11-07T19:22:05.299Z,73.80
2018-11-07T19:24:33.168Z,74.14
2018-11-07T19:50:23.847Z,76.08
2018-11-07T19:52:53.338Z,75.79
2018-11-07T19:55:20.165Z,75.69
2018-11-07T19:57:46.747Z,76.09
2018-11-07T20:00:16.252Z,76.03
2018-11-07T20:02:44.118Z,75.83
2018-11-07T20:05:10.550Z,76.39
2018-11-07T20:07:36.976Z,76.36
2018-11-07T20:10:03.721Z,76.12
2018-11-07T20:12:30.399Z,76.15
2018-11-07T21:19:02.730Z,79.60
2018-11-07T22:48:15.364Z,85.41
2018-11-07T22:50:42.589Z,85.47
2018-11-07T22:53:09.586Z,85.60
2018-11-07T23:12:51.387Z,85.58
2018-11-07T23:29:01.710Z,86.25
2018-11-07T23:31:28.235Z,86.18
2018-11-07T23:33:56.634Z,86.01
2018-11-07T23:36:23.146Z,86.30
2018-11-07T23:38:49.682Z,86.31
2018-11-07T23:41:16.259Z,86.15
2018-11-07T23:43:46.210Z,86.30
2018-11-07T23:46:13.179Z,86.42
2018-11-07T23:48:39.587Z,86.32
2018-11-07T23:51:06.174Z,86.73
2018-11-07T23:53:33.171Z,86.64
2018-11-07T23:55:59.612Z,86.66
2018-11-07T23:58:26.084Z,87.28
